Altamonte Springs, Florida
Current Conditions -  °F | °C
As of 7:53 PM on Monday 24 Nov 2014 (Local Time) from KORL Reporting Station
Clear Clear  
Wind Chill: 26°   Ceiling: Unl
Heat Index: 27°   Visibility: 10mi
Dew Point: 21°   Wind: 8mph
Humidity: 74%   Direction: 200°SSW
Pressure: 29.99"   Gusts: NA
Location:  28.67°N, 81.36°W
Report Text: KORL 250053Z 20007KT 10SM CLR 26/21 A2999 RMK AO2 SLP157 T02560206
Loading
Personal Weather Stations






























Interactive Weather Map New forecast layout! Learn more

10-Day Weather Forecast

Advertisements
Track Severe Weather on mobile